Brighton, Vermont
Current Conditions -  °F | °C
As of 9:35 AM on Thursday 23 Oct 2014 (Local Time) from KCDA Reporting Station
Overcast Overcast  
Wind Chill: 42°   Ceiling: 2700
Heat Index: 47°   Visibility: 10mi
Dew Point: 39°   Wind: 12mph
Humidity: 73%   Direction: 320°NW
Pressure: 29.93"   Gusts: 18mph
Location:  44.7725°N, 71.8101°W
Report Text: KCDA 231335Z AUTO 32010G16KT 10SM BKN027 BKN048 OVC060 09/04 A2993 RMK AO2 T00850040
Loading
Personal Weather Stations






























Interactive Weather Map
Tropical Storm Tracking
New forecast layout! Learn more

10-Day Weather Forecast

Advertisements
Track Severe Weather on mobile